sensor_id;sensor_type;location;lat;lon;timestamp;P1;durP1;ratioP1;P2;durP2;ratioP2
51475;SDS011;37554;50.362;7.568;2023-07-08T00:00:18;8.25;;;6.90;;
51475;SDS011;37554;50.362;7.568;2023-07-08T00:02:44;7.97;;;7.18;;
51475;SDS011;37554;50.362;7.568;2023-07-08T00:05:11;8.23;;;6.80;;
51475;SDS011;37554;50.362;7.568;2023-07-08T00:07:38;8.75;;;7.03;;
51475;SDS011;37554;50.362;7.568;2023-07-08T00:10:23;8.25;;;7.10;;
51475;SDS011;37554;50.362;7.568;2023-07-08T00:12:51;7.63;;;6.82;;
51475;SDS011;37554;50.362;7.568;2023-07-08T00:15:18;9.93;;;6.80;;
51475;SDS011;37554;50.362;7.568;2023-07-08T00:17:49;7.78;;;6.95;;
51475;SDS011;37554;50.362;7.568;2023-07-08T00:20:20;9.95;;;6.88;;
51475;SDS011;37554;50.362;7.568;2023-07-08T00:22:48;9.45;;;7.05;;
51475;SDS011;37554;50.362;7.568;2023-07-08T00:25:15;8.05;;;7.03;;
51475;SDS011;37554;50.362;7.568;2023-07-08T00:27:42;8.75;;;7.30;;
51475;SDS011;37554;50.362;7.568;2023-07-08T00:30:11;7.45;;;6.75;;
51475;SDS011;37554;50.362;7.568;2023-07-08T00:32:44;8.43;;;6.75;;
51475;SDS011;37554;50.362;7.568;2023-07-08T00:35:09;10.43;;;7.13;;
51475;SDS011;37554;50.362;7.568;2023-07-08T00:37:35;8.25;;;7.10;;
51475;SDS011;37554;50.362;7.568;2023-07-08T00:40:01;8.40;;;6.80;;
51475;SDS011;37554;50.362;7.568;2023-07-08T00:42:42;7.03;;;6.32;;
51475;SDS011;37554;50.362;7.568;2023-07-08T00:45:56;8.27;;;7.03;;
51475;SDS011;37554;50.362;7.568;2023-07-08T00:48:12;8.23;;;6.88;;
51475;SDS011;37554;50.362;7.568;2023-07-08T00:50:53;10.65;;;7.30;;
51475;SDS011;37554;50.362;7.568;2023-07-08T00:53:23;9.02;;;6.90;;
51475;SDS011;37554;50.362;7.568;2023-07-08T00:55:55;7.53;;;6.75;;
51475;SDS011;37554;50.362;7.568;2023-07-08T00:58:25;7.28;;;6.50;;
51475;SDS011;37554;50.362;7.568;2023-07-08T01:00:55;9.82;;;7.32;;
51475;SDS011;37554;50.362;7.568;2023-07-08T01:03:22;9.15;;;7.13;;
51475;SDS011;37554;50.362;7.568;2023-07-08T01:05:49;7.40;;;6.65;;
51475;SDS011;37554;50.362;7.568;2023-07-08T01:08:16;8.52;;;6.68;;
51475;SDS011;37554;50.362;7.568;2023-07-08T01:10:46;9.52;;;7.07;;
51475;SDS011;37554;50.362;7.568;2023-07-08T01:13:15;7.45;;;6.72;;
51475;SDS011;37554;50.362;7.568;2023-07-08T01:15:43;11.23;;;7.07;;
51475;SDS011;37554;50.362;7.568;2023-07-08T01:18:11;8.27;;;6.65;;
51475;SDS011;37554;50.362;7.568;2023-07-08T01:20:41;12.32;;;7.20;;
51475;SDS011;37554;50.362;7.568;2023-07-08T01:23:07;12.18;;;7.22;;
51475;SDS011;37554;50.362;7.568;2023-07-08T01:25:36;8.32;;;7.00;;
51475;SDS011;37554;50.362;7.568;2023-07-08T01:28:02;8.82;;;6.75;;
51475;SDS011;37554;50.362;7.568;2023-07-08T01:30:29;9.25;;;7.00;;
51475;SDS011;37554;50.362;7.568;2023-07-08T01:32:55;8.35;;;6.53;;
51475;SDS011;37554;50.362;7.568;2023-07-08T01:35:26;9.43;;;6.57;;
51475;SDS011;37554;50.362;7.568;2023-07-08T01:37:53;7.75;;;6.40;;
51475;SDS011;37554;50.362;7.568;2023-07-08T01:40:25;8.23;;;6.77;;
51475;SDS011;37554;50.362;7.568;2023-07-08T01:42:56;7.85;;;7.05;;
51475;SDS011;37554;50.362;7.568;2023-07-08T01:45:23;10.05;;;7.25;;
51475;SDS011;37554;50.362;7.568;2023-07-08T01:47:52;9.60;;;6.65;;
51475;SDS011;37554;50.362;7.568;2023-07-08T01:50:23;8.63;;;7.05;;
51475;SDS011;37554;50.362;7.568;2023-07-08T01:52:50;9.02;;;7.15;;
51475;SDS011;37554;50.362;7.568;2023-07-08T01:55:22;7.78;;;6.97;;
51475;SDS011;37554;50.362;7.568;2023-07-08T01:57:50;8.13;;;6.63;;
51475;SDS011;37554;50.362;7.568;2023-07-08T02:00:17;10.77;;;6.88;;
51475;SDS011;37554;50.362;7.568;2023-07-08T02:02:43;10.82;;;7.22;;
51475;SDS011;37554;50.362;7.568;2023-07-08T02:05:09;9.32;;;7.25;;
51475;SDS011;37554;50.362;7.568;2023-07-08T02:07:34;8.25;;;6.68;;
51475;SDS011;37554;50.362;7.568;2023-07-08T02:10:00;10.70;;;6.90;;
51475;SDS011;37554;50.362;7.568;2023-07-08T02:12:25;8.85;;;7.18;;
51475;SDS011;37554;50.362;7.568;2023-07-08T02:14:51;7.45;;;6.25;;
51475;SDS011;37554;50.362;7.568;2023-07-08T02:17:16;9.73;;;6.82;;
51475;SDS011;37554;50.362;7.568;2023-07-08T02:19:43;8.38;;;6.75;;
51475;SDS011;37554;50.362;7.568;2023-07-08T02:22:08;8.95;;;6.05;;
51475;SDS011;37554;50.362;7.568;2023-07-08T02:24:34;8.90;;;7.00;;
51475;SDS011;37554;50.362;7.568;2023-07-08T02:27:00;7.15;;;6.45;;
51475;SDS011;37554;50.362;7.568;2023-07-08T02:29:26;7.90;;;6.57;;
51475;SDS011;37554;50.362;7.568;2023-07-08T02:31:51;9.77;;;7.00;;
51475;SDS011;37554;50.362;7.568;2023-07-08T02:34:17;7.63;;;6.40;;
51475;SDS011;37554;50.362;7.568;2023-07-08T02:36:43;7.95;;;7.15;;
51475;SDS011;37554;50.362;7.568;2023-07-08T02:39:09;8.73;;;7.00;;
51475;SDS011;37554;50.362;7.568;2023-07-08T02:41:36;8.00;;;6.43;;
51475;SDS011;37554;50.362;7.568;2023-07-08T02:44:02;8.60;;;6.80;;
51475;SDS011;37554;50.362;7.568;2023-07-08T02:46:27;8.07;;;6.75;;
51475;SDS011;37554;50.362;7.568;2023-07-08T02:48:53;7.93;;;6.95;;
51475;SDS011;37554;50.362;7.568;2023-07-08T02:51:18;8.13;;;6.70;;
51475;SDS011;37554;50.362;7.568;2023-07-08T02:53:44;9.10;;;7.00;;
51475;SDS011;37554;50.362;7.568;2023-07-08T02:56:10;7.32;;;6.45;;
51475;SDS011;37554;50.362;7.568;2023-07-08T02:58:35;8.95;;;6.68;;
51475;SDS011;37554;50.362;7.568;2023-07-08T03:01:01;9.10;;;7.15;;
51475;SDS011;37554;50.362;7.568;2023-07-08T03:03:27;7.80;;;7.00;;
51475;SDS011;37554;50.362;7.568;2023-07-08T03:05:57;7.55;;;6.78;;
51475;SDS011;37554;50.362;7.568;2023-07-08T03:08:24;8.27;;;6.70;;
51475;SDS011;37554;50.362;7.568;2023-07-08T03:11:01;10.75;;;7.00;;
51475;SDS011;37554;50.362;7.568;2023-07-08T03:13:29;9.80;;;6.35;;
51475;SDS011;37554;50.362;7.568;2023-07-08T03:15:55;8.77;;;6.72;;
51475;SDS011;37554;50.362;7.568;2023-07-08T03:18:27;8.68;;;6.63;;
51475;SDS011;37554;50.362;7.568;2023-07-08T03:20:54;8.20;;;6.85;;
51475;SDS011;37554;50.362;7.568;2023-07-08T03:23:22;9.82;;;6.97;;
51475;SDS011;37554;50.362;7.568;2023-07-08T03:25:49;7.68;;;6.47;;
51475;SDS011;37554;50.362;7.568;2023-07-08T03:28:15;9.05;;;6.82;;
51475;SDS011;37554;50.362;7.568;2023-07-08T03:30:41;8.60;;;6.13;;
51475;SDS011;37554;50.362;7.568;2023-07-08T03:33:07;9.40;;;6.82;;
51475;SDS011;37554;50.362;7.568;2023-07-08T03:35:33;8.10;;;6.28;;
51475;SDS011;37554;50.362;7.568;2023-07-08T03:37:59;7.05;;;6.10;;
51475;SDS011;37554;50.362;7.568;2023-07-08T03:40:25;9.02;;;6.80;;
51475;SDS011;37554;50.362;7.568;2023-07-08T03:42:51;8.88;;;7.00;;
51475;SDS011;37554;50.362;7.568;2023-07-08T03:45:16;7.40;;;6.43;;
51475;SDS011;37554;50.362;7.568;2023-07-08T03:47:42;8.13;;;6.82;;
51475;SDS011;37554;50.362;7.568;2023-07-08T03:50:18;8.10;;;6.85;;
51475;SDS011;37554;50.362;7.568;2023-07-08T03:52:46;9.18;;;6.93;;
51475;SDS011;37554;50.362;7.568;2023-07-08T03:55:12;8.00;;;5.90;;
51475;SDS011;37554;50.362;7.568;2023-07-08T03:57:38;12.40;;;6.82;;
51475;SDS011;37554;50.362;7.568;2023-07-08T04:00:04;6.95;;;6.25;;
51475;SDS011;37554;50.362;7.568;2023-07-08T04:02:34;14.15;;;7.30;;
51475;SDS011;37554;50.362;7.568;2023-07-08T04:05:20;7.28;;;6.57;;
51475;SDS011;37554;50.362;7.568;2023-07-08T04:07:48;8.10;;;6.00;;
51475;SDS011;37554;50.362;7.568;2023-07-08T04:10:14;6.57;;;5.95;;
51475;SDS011;37554;50.362;7.568;2023-07-08T04:12:41;7.20;;;6.18;;
51475;SDS011;37554;50.362;7.568;2023-07-08T04:15:08;8.43;;;6.30;;
51475;SDS011;37554;50.362;7.568;2023-07-08T04:17:36;8.90;;;7.03;;
51475;SDS011;37554;50.362;7.568;2023-07-08T04:20:07;7.53;;;6.77;;
51475;SDS011;37554;50.362;7.568;2023-07-08T04:22:35;8.43;;;6.63;;
51475;SDS011;37554;50.362;7.568;2023-07-08T04:25:01;8.82;;;7.13;;
51475;SDS011;37554;50.362;7.568;2023-07-08T04:27:29;8.30;;;6.57;;
51475;SDS011;37554;50.362;7.568;2023-07-08T04:29:55;9.95;;;7.22;;
51475;SDS011;37554;50.362;7.568;2023-07-08T04:32:20;8.93;;;6.80;;
51475;SDS011;37554;50.362;7.568;2023-07-08T04:34:49;8.00;;;6.60;;
51475;SDS011;37554;50.362;7.568;2023-07-08T04:37:18;10.52;;;6.95;;
51475;SDS011;37554;50.362;7.568;2023-07-08T04:39:44;7.45;;;6.70;;
51475;SDS011;37554;50.362;7.568;2023-07-08T04:42:11;7.60;;;6.47;;
51475;SDS011;37554;50.362;7.568;2023-07-08T04:44:41;8.85;;;6.70;;
51475;SDS011;37554;50.362;7.568;2023-07-08T04:47:07;8.85;;;7.00;;
51475;SDS011;37554;50.362;7.568;2023-07-08T04:49:38;8.10;;;6.50;;
51475;SDS011;37554;50.362;7.568;2023-07-08T04:52:08;9.18;;;6.47;;
51475;SDS011;37554;50.362;7.568;2023-07-08T04:54:34;9.05;;;7.07;;
51475;SDS011;37554;50.362;7.568;2023-07-08T04:56:59;7.57;;;6.78;;
51475;SDS011;37554;50.362;7.568;2023-07-08T04:59:25;7.55;;;6.25;;
51475;SDS011;37554;50.362;7.568;2023-07-08T05:01:51;8.27;;;6.75;;
51475;SDS011;37554;50.362;7.568;2023-07-08T05:04:18;8.15;;;6.28;;
51475;SDS011;37554;50.362;7.568;2023-07-08T05:06:45;8.55;;;6.20;;
51475;SDS011;37554;50.362;7.568;2023-07-08T05:09:11;8.10;;;6.90;;
51475;SDS011;37554;50.362;7.568;2023-07-08T05:11:37;7.40;;;6.45;;
51475;SDS011;37554;50.362;7.568;2023-07-08T05:14:03;8.52;;;7.07;;
51475;SDS011;37554;50.362;7.568;2023-07-08T05:16:29;11.88;;;7.43;;
51475;SDS011;37554;50.362;7.568;2023-07-08T05:18:57;8.35;;;6.15;;
51475;SDS011;37554;50.362;7.568;2023-07-08T05:21:22;9.25;;;6.13;;
51475;SDS011;37554;50.362;7.568;2023-07-08T05:23:48;7.78;;;6.82;;
51475;SDS011;37554;50.362;7.568;2023-07-08T05:26:14;8.43;;;6.35;;
51475;SDS011;37554;50.362;7.568;2023-07-08T05:28:41;7.15;;;6.40;;
51475;SDS011;37554;50.362;7.568;2023-07-08T05:31:06;7.38;;;6.30;;
51475;SDS011;37554;50.362;7.568;2023-07-08T05:33:33;7.68;;;6.70;;
51475;SDS011;37554;50.362;7.568;2023-07-08T05:35:59;9.02;;;7.47;;
51475;SDS011;37554;50.362;7.568;2023-07-08T05:38:24;7.40;;;6.68;;
51475;SDS011;37554;50.362;7.568;2023-07-08T05:40:53;8.65;;;7.00;;
51475;SDS011;37554;50.362;7.568;2023-07-08T05:43:19;12.45;;;7.07;;
51475;SDS011;37554;50.362;7.568;2023-07-08T05:45:45;12.60;;;7.95;;
51475;SDS011;37554;50.362;7.568;2023-07-08T05:48:11;8.45;;;7.40;;
51475;SDS011;37554;50.362;7.568;2023-07-08T05:50:36;7.75;;;6.95;;
51475;SDS011;37554;50.362;7.568;2023-07-08T05:53:03;7.93;;;7.13;;
51475;SDS011;37554;50.362;7.568;2023-07-08T05:55:28;8.68;;;7.20;;
51475;SDS011;37554;50.362;7.568;2023-07-08T05:57:54;8.60;;;6.82;;
51475;SDS011;37554;50.362;7.568;2023-07-08T06:00:19;11.65;;;7.72;;
51475;SDS011;37554;50.362;7.568;2023-07-08T06:02:45;9.25;;;7.25;;
51475;SDS011;37554;50.362;7.568;2023-07-08T06:05:11;10.50;;;7.65;;
51475;SDS011;37554;50.362;7.568;2023-07-08T06:07:36;11.15;;;7.03;;
51475;SDS011;37554;50.362;7.568;2023-07-08T06:10:02;8.52;;;6.97;;
51475;SDS011;37554;50.362;7.568;2023-07-08T06:12:29;10.48;;;7.45;;
51475;SDS011;37554;50.362;7.568;2023-07-08T06:14:55;11.52;;;7.03;;
51475;SDS011;37554;50.362;7.568;2023-07-08T06:17:21;8.95;;;7.15;;
51475;SDS011;37554;50.362;7.568;2023-07-08T06:19:47;9.05;;;7.15;;
51475;SDS011;37554;50.362;7.568;2023-07-08T06:22:12;10.00;;;6.88;;
51475;SDS011;37554;50.362;7.568;2023-07-08T06:24:38;9.10;;;6.40;;
51475;SDS011;37554;50.362;7.568;2023-07-08T06:27:04;11.27;;;6.95;;
51475;SDS011;37554;50.362;7.568;2023-07-08T06:29:29;6.95;;;6.22;;
51475;SDS011;37554;50.362;7.568;2023-07-08T06:31:55;7.95;;;5.93;;
51475;SDS011;37554;50.362;7.568;2023-07-08T06:34:21;10.00;;;6.38;;
51475;SDS011;37554;50.362;7.568;2023-07-08T06:36:48;7.60;;;6.28;;
51475;SDS011;37554;50.362;7.568;2023-07-08T06:39:15;8.55;;;6.15;;
51475;SDS011;37554;50.362;7.568;2023-07-08T06:41:41;8.13;;;6.38;;
51475;SDS011;37554;50.362;7.568;2023-07-08T06:44:07;6.82;;;6.03;;
51475;SDS011;37554;50.362;7.568;2023-07-08T06:46:33;7.15;;;5.88;;
51475;SDS011;37554;50.362;7.568;2023-07-08T06:48:59;7.32;;;5.78;;
51475;SDS011;37554;50.362;7.568;2023-07-08T06:51:25;6.80;;;6.20;;
51475;SDS011;37554;50.362;7.568;2023-07-08T06:53:51;7.85;;;5.15;;
51475;SDS011;37554;50.362;7.568;2023-07-08T06:56:16;8.02;;;5.95;;
51475;SDS011;37554;50.362;7.568;2023-07-08T06:58:42;7.32;;;5.93;;
51475;SDS011;37554;50.362;7.568;2023-07-08T07:01:08;8.07;;;5.63;;
51475;SDS011;37554;50.362;7.568;2023-07-08T07:03:33;7.07;;;5.70;;
51475;SDS011;37554;50.362;7.568;2023-07-08T07:05:59;7.55;;;5.70;;
51475;SDS011;37554;50.362;7.568;2023-07-08T07:08:24;8.02;;;5.82;;
51475;SDS011;37554;50.362;7.568;2023-07-08T07:10:50;7.15;;;4.95;;
51475;SDS011;37554;50.362;7.568;2023-07-08T07:13:16;6.80;;;5.40;;
51475;SDS011;37554;50.362;7.568;2023-07-08T07:15:41;5.35;;;4.82;;
51475;SDS011;37554;50.362;7.568;2023-07-08T07:18:07;5.47;;;4.97;;
51475;SDS011;37554;50.362;7.568;2023-07-08T07:20:33;5.47;;;4.97;;
51475;SDS011;37554;50.362;7.568;2023-07-08T07:23:01;5.50;;;5.00;;
51475;SDS011;37554;50.362;7.568;2023-07-08T07:25:26;5.25;;;4.53;;
51475;SDS011;37554;50.362;7.568;2023-07-08T07:27:52;5.50;;;4.57;;
51475;SDS011;37554;50.362;7.568;2023-07-08T07:30:17;5.30;;;4.80;;
51475;SDS011;37554;50.362;7.568;2023-07-08T07:32:43;6.78;;;4.82;;
51475;SDS011;37554;50.362;7.568;2023-07-08T07:35:10;8.52;;;4.57;;
51475;SDS011;37554;50.362;7.568;2023-07-08T07:37:40;7.03;;;4.28;;
51475;SDS011;37554;50.362;7.568;2023-07-08T07:40:08;6.35;;;4.22;;
51475;SDS011;37554;50.362;7.568;2023-07-08T07:42:39;4.00;;;3.63;;
51475;SDS011;37554;50.362;7.568;2023-07-08T07:45:05;5.57;;;4.65;;
51475;SDS011;37554;50.362;7.568;2023-07-08T07:47:31;5.03;;;4.28;;
51475;SDS011;37554;50.362;7.568;2023-07-08T07:49:57;4.53;;;3.65;;
51475;SDS011;37554;50.362;7.568;2023-07-08T07:52:24;4.70;;;3.95;;
51475;SDS011;37554;50.362;7.568;2023-07-08T07:54:53;5.72;;;3.78;;
51475;SDS011;37554;50.362;7.568;2023-07-08T07:57:20;4.22;;;3.35;;
51475;SDS011;37554;50.362;7.568;2023-07-08T07:59:46;6.07;;;3.80;;
51475;SDS011;37554;50.362;7.568;2023-07-08T08:02:12;4.88;;;3.85;;
51475;SDS011;37554;50.362;7.568;2023-07-08T08:04:38;4.55;;;3.92;;
51475;SDS011;37554;50.362;7.568;2023-07-08T08:07:03;3.75;;;3.42;;
51475;SDS011;37554;50.362;7.568;2023-07-08T08:09:29;4.53;;;3.80;;
51475;SDS011;37554;50.362;7.568;2023-07-08T08:11:55;5.38;;;3.53;;
51475;SDS011;37554;50.362;7.568;2023-07-08T08:14:20;4.97;;;3.25;;
51475;SDS011;37554;50.362;7.568;2023-07-08T08:16:46;4.45;;;3.67;;
51475;SDS011;37554;50.362;7.568;2023-07-08T08:19:12;5.43;;;3.83;;
51475;SDS011;37554;50.362;7.568;2023-07-08T08:21:37;4.00;;;3.65;;
51475;SDS011;37554;50.362;7.568;2023-07-08T08:24:03;4.30;;;3.60;;
51475;SDS011;37554;50.362;7.568;2023-07-08T08:26:29;4.00;;;3.65;;
51475;SDS011;37554;50.362;7.568;2023-07-08T08:28:55;3.97;;;3.58;;
51475;SDS011;37554;50.362;7.568;2023-07-08T08:31:21;6.57;;;3.90;;
51475;SDS011;37554;50.362;7.568;2023-07-08T08:33:46;4.60;;;3.75;;
51475;SDS011;37554;50.362;7.568;2023-07-08T08:36:12;4.38;;;3.83;;
51475;SDS011;37554;50.362;7.568;2023-07-08T08:38:38;6.50;;;3.50;;
51475;SDS011;37554;50.362;7.568;2023-07-08T08:41:11;4.95;;;3.45;;
51475;SDS011;37554;50.362;7.568;2023-07-08T08:43:39;3.72;;;3.40;;
51475;SDS011;37554;50.362;7.568;2023-07-08T08:46:23;3.60;;;3.13;;
51475;SDS011;37554;50.362;7.568;2023-07-08T08:49:26;4.93;;;3.58;;
51475;SDS011;37554;50.362;7.568;2023-07-08T08:51:55;3.42;;;2.88;;
51475;SDS011;37554;50.362;7.568;2023-07-08T08:54:23;5.85;;;3.40;;
51475;SDS011;37554;50.362;7.568;2023-07-08T09:02:41;3.90;;;3.00;;
51475;SDS011;37554;50.362;7.568;2023-07-08T09:05:18;5.47;;;3.17;;
51475;SDS011;37554;50.362;7.568;2023-07-08T09:07:50;4.60;;;3.22;;
51475;SDS011;37554;50.362;7.568;2023-07-08T09:10:38;3.88;;;3.38;;
51475;SDS011;37554;50.362;7.568;2023-07-08T09:13:04;3.88;;;3.25;;
51475;SDS011;37554;50.362;7.568;2023-07-08T09:15:32;5.10;;;3.38;;
51475;SDS011;37554;50.362;7.568;2023-07-08T09:18:00;4.07;;;3.17;;
51475;SDS011;37554;50.362;7.568;2023-07-08T09:20:38;3.35;;;3.05;;
51475;SDS011;37554;50.362;7.568;2023-07-08T09:23:26;4.75;;;3.38;;
51475;SDS011;37554;50.362;7.568;2023-07-08T09:26:05;3.80;;;3.38;;
51475;SDS011;37554;50.362;7.568;2023-07-08T09:28:38;4.43;;;3.10;;
51475;SDS011;37554;50.362;7.568;2023-07-08T09:31:06;4.88;;;3.33;;
51475;SDS011;37554;50.362;7.568;2023-07-08T09:33:37;3.75;;;3.30;;
51475;SDS011;37554;50.362;7.568;2023-07-08T09:36:04;4.88;;;4.30;;
51475;SDS011;37554;50.362;7.568;2023-07-08T09:38:42;4.45;;;3.92;;
51475;SDS011;37554;50.362;7.568;2023-07-08T09:41:07;4.53;;;4.13;;
51475;SDS011;37554;50.362;7.568;2023-07-08T09:43:34;6.65;;;3.97;;
51475;SDS011;37554;50.362;7.568;2023-07-08T09:46:03;3.97;;;3.50;;
51475;SDS011;37554;50.362;7.568;2023-07-08T09:48:33;4.28;;;3.88;;
51475;SDS011;37554;50.362;7.568;2023-07-08T09:51:00;6.75;;;4.15;;
51475;SDS011;37554;50.362;7.568;2023-07-08T09:53:27;5.00;;;3.95;;
51475;SDS011;37554;50.362;7.568;2023-07-08T09:55:53;4.50;;;4.07;;
51475;SDS011;37554;50.362;7.568;2023-07-08T09:58:24;4.75;;;3.88;;
51475;SDS011;37554;50.362;7.568;2023-07-08T10:01:01;4.50;;;4.10;;
51475;SDS011;37554;50.362;7.568;2023-07-08T10:03:35;5.90;;;3.80;;
51475;SDS011;37554;50.362;7.568;2023-07-08T10:06:03;6.03;;;3.83;;
51475;SDS011;37554;50.362;7.568;2023-07-08T10:08:36;5.28;;;4.43;;
51475;SDS011;37554;50.362;7.568;2023-07-08T10:13:50;5.68;;;4.82;;
51475;SDS011;37554;50.362;7.568;2023-07-08T10:16:29;5.82;;;4.25;;
51475;SDS011;37554;50.362;7.568;2023-07-08T10:18:57;8.63;;;3.60;;
51475;SDS011;37554;50.362;7.568;2023-07-08T10:30:00;3.95;;;3.50;;
51475;SDS011;37554;50.362;7.568;2023-07-08T10:32:43;7.50;;;3.47;;
51475;SDS011;37554;50.362;7.568;2023-07-08T10:35:35;3.55;;;3.25;;
51475;SDS011;37554;50.362;7.568;2023-07-08T10:41:07;7.20;;;4.03;;
51475;SDS011;37554;50.362;7.568;2023-07-08T10:51:34;5.60;;;3.70;;
51475;SDS011;37554;50.362;7.568;2023-07-08T10:54:16;8.15;;;3.65;;
51475;SDS011;37554;50.362;7.568;2023-07-08T10:56:59;6.38;;;3.72;;
51475;SDS011;37554;50.362;7.568;2023-07-08T11:10:51;9.07;;;4.00;;
51475;SDS011;37554;50.362;7.568;2023-07-08T11:13:24;4.95;;;4.28;;
51475;SDS011;37554;50.362;7.568;2023-07-08T11:16:15;5.05;;;4.28;;
51475;SDS011;37554;50.362;7.568;2023-07-08T11:21:45;4.65;;;4.22;;
51475;SDS011;37554;50.362;7.568;2023-07-08T11:24:18;4.93;;;4.10;;
51475;SDS011;37554;50.362;7.568;2023-07-08T11:26:56;5.13;;;4.30;;
51475;SDS011;37554;50.362;7.568;2023-07-08T11:32:19;4.50;;;3.95;;
51475;SDS011;37554;50.362;7.568;2023-07-08T11:34:49;5.63;;;4.40;;
51475;SDS011;37554;50.362;7.568;2023-07-08T11:37:17;5.72;;;4.75;;
51475;SDS011;37554;50.362;7.568;2023-07-08T11:39:46;4.22;;;3.80;;
51475;SDS011;37554;50.362;7.568;2023-07-08T11:45:02;4.93;;;4.10;;
51475;SDS011;37554;50.362;7.568;2023-07-08T11:47:49;4.57;;;3.63;;
51475;SDS011;37554;50.362;7.568;2023-07-08T11:50:31;7.47;;;4.05;;
51475;SDS011;37554;50.362;7.568;2023-07-08T11:53:11;6.13;;;3.80;;
51475;SDS011;37554;50.362;7.568;2023-07-08T11:55:56;5.35;;;4.13;;
51475;SDS011;37554;50.362;7.568;2023-07-08T11:58:30;5.00;;;4.45;;
51475;SDS011;37554;50.362;7.568;2023-07-08T12:03:49;8.88;;;4.13;;
51475;SDS011;37554;50.362;7.568;2023-07-08T12:08:55;8.05;;;4.45;;
51475;SDS011;37554;50.362;7.568;2023-07-08T12:11:33;5.45;;;3.75;;
51475;SDS011;37554;50.362;7.568;2023-07-08T12:14:01;4.20;;;3.80;;
51475;SDS011;37554;50.362;7.568;2023-07-08T12:16:28;6.38;;;4.03;;
51475;SDS011;37554;50.362;7.568;2023-07-08T12:18:55;10.45;;;4.30;;
51475;SDS011;37554;50.362;7.568;2023-07-08T12:21:24;5.05;;;4.30;;
51475;SDS011;37554;50.362;7.568;2023-07-08T12:23:53;6.57;;;4.05;;
51475;SDS011;37554;50.362;7.568;2023-07-08T12:26:19;4.82;;;4.32;;
51475;SDS011;37554;50.362;7.568;2023-07-08T12:28:46;5.68;;;4.75;;
51475;SDS011;37554;50.362;7.568;2023-07-08T12:31:13;5.43;;;4.65;;
51475;SDS011;37554;50.362;7.568;2023-07-08T12:36:10;6.45;;;4.45;;
51475;SDS011;37554;50.362;7.568;2023-07-08T12:38:41;4.93;;;4.40;;
51475;SDS011;37554;50.362;7.568;2023-07-08T12:41:12;6.32;;;4.65;;
51475;SDS011;37554;50.362;7.568;2023-07-08T12:43:41;5.57;;;4.10;;
51475;SDS011;37554;50.362;7.568;2023-07-08T12:46:08;8.52;;;4.88;;
51475;SDS011;37554;50.362;7.568;2023-07-08T12:48:38;4.13;;;3.75;;
51475;SDS011;37554;50.362;7.568;2023-07-08T12:51:06;8.68;;;4.40;;
51475;SDS011;37554;50.362;7.568;2023-07-08T12:53:36;5.93;;;4.38;;
51475;SDS011;37554;50.362;7.568;2023-07-08T12:56:02;4.65;;;4.15;;
51475;SDS011;37554;50.362;7.568;2023-07-08T12:58:29;4.32;;;3.92;;
51475;SDS011;37554;50.362;7.568;2023-07-08T13:00:57;5.47;;;4.50;;
51475;SDS011;37554;50.362;7.568;2023-07-08T13:03:26;4.65;;;4.22;;
51475;SDS011;37554;50.362;7.568;2023-07-08T13:05:55;6.82;;;4.45;;
51475;SDS011;37554;50.362;7.568;2023-07-08T13:08:22;4.45;;;4.05;;
51475;SDS011;37554;50.362;7.568;2023-07-08T13:10:52;5.63;;;4.28;;
51475;SDS011;37554;50.362;7.568;2023-07-08T13:13:21;4.38;;;3.97;;
51475;SDS011;37554;50.362;7.568;2023-07-08T13:18:19;5.75;;;4.15;;
51475;SDS011;37554;50.362;7.568;2023-07-08T13:20:57;6.38;;;4.63;;
51475;SDS011;37554;50.362;7.568;2023-07-08T13:23:23;4.93;;;4.38;;
51475;SDS011;37554;50.362;7.568;2023-07-08T13:25:51;5.65;;;4.43;;
51475;SDS011;37554;50.362;7.568;2023-07-08T13:28:24;5.95;;;4.80;;
51475;SDS011;37554;50.362;7.568;2023-07-08T13:30:53;5.00;;;4.07;;
51475;SDS011;37554;50.362;7.568;2023-07-08T13:33:19;5.97;;;4.20;;
51475;SDS011;37554;50.362;7.568;2023-07-08T13:35:46;4.75;;;4.00;;
51475;SDS011;37554;50.362;7.568;2023-07-08T13:38:16;5.22;;;4.25;;
51475;SDS011;37554;50.362;7.568;2023-07-08T13:40:45;4.80;;;4.28;;
51475;SDS011;37554;50.362;7.568;2023-07-08T13:43:22;4.38;;;3.97;;
51475;SDS011;37554;50.362;7.568;2023-07-08T13:45:50;5.20;;;3.65;;
51475;SDS011;37554;50.362;7.568;2023-07-08T13:48:27;3.92;;;3.60;;
51475;SDS011;37554;50.362;7.568;2023-07-08T13:51:01;5.20;;;3.85;;
51475;SDS011;37554;50.362;7.568;2023-07-08T13:53:51;6.07;;;3.80;;
51475;SDS011;37554;50.362;7.568;2023-07-08T13:56:24;5.72;;;3.90;;
51475;SDS011;37554;50.362;7.568;2023-07-08T13:59:02;5.00;;;3.83;;
51475;SDS011;37554;50.362;7.568;2023-07-08T14:01:33;6.25;;;3.70;;
51475;SDS011;37554;50.362;7.568;2023-07-08T14:04:00;5.05;;;3.33;;
51475;SDS011;37554;50.362;7.568;2023-07-08T14:06:29;5.68;;;3.67;;
51475;SDS011;37554;50.362;7.568;2023-07-08T14:08:57;3.78;;;3.25;;
51475;SDS011;37554;50.362;7.568;2023-07-08T14:11:25;5.43;;;3.80;;
51475;SDS011;37554;50.362;7.568;2023-07-08T14:13:50;6.35;;;3.95;;
51475;SDS011;37554;50.362;7.568;2023-07-08T14:16:23;7.25;;;3.90;;
51475;SDS011;37554;50.362;7.568;2023-07-08T14:18:52;6.15;;;4.32;;
51475;SDS011;37554;50.362;7.568;2023-07-08T14:21:19;4.80;;;3.85;;
51475;SDS011;37554;50.362;7.568;2023-07-08T14:23:45;8.18;;;3.72;;
51475;SDS011;37554;50.362;7.568;2023-07-08T14:26:11;5.40;;;3.53;;
51475;SDS011;37554;50.362;7.568;2023-07-08T14:28:37;4.82;;;4.03;;
51475;SDS011;37554;50.362;7.568;2023-07-08T14:31:02;6.22;;;4.40;;
51475;SDS011;37554;50.362;7.568;2023-07-08T14:33:33;4.38;;;3.67;;
51475;SDS011;37554;50.362;7.568;2023-07-08T14:35:59;4.70;;;3.50;;
51475;SDS011;37554;50.362;7.568;2023-07-08T14:38:24;8.18;;;3.72;;
51475;SDS011;37554;50.362;7.568;2023-07-08T14:40:50;5.20;;;3.33;;
51475;SDS011;37554;50.362;7.568;2023-07-08T14:43:17;6.25;;;3.33;;
51475;SDS011;37554;50.362;7.568;2023-07-08T14:45:53;4.03;;;3.40;;
51475;SDS011;37554;50.362;7.568;2023-07-08T14:48:21;6.68;;;3.47;;
51475;SDS011;37554;50.362;7.568;2023-07-08T14:50:47;4.00;;;3.42;;
51475;SDS011;37554;50.362;7.568;2023-07-08T14:53:16;5.10;;;3.33;;
51475;SDS011;37554;50.362;7.568;2023-07-08T14:55:44;4.68;;;3.38;;
51475;SDS011;37554;50.362;7.568;2023-07-08T14:58:28;6.55;;;4.35;;
51475;SDS011;37554;50.362;7.568;2023-07-08T15:00:55;6.63;;;3.88;;
51475;SDS011;37554;50.362;7.568;2023-07-08T15:03:24;4.88;;;3.90;;
51475;SDS011;37554;50.362;7.568;2023-07-08T15:05:51;4.35;;;3.95;;
51475;SDS011;37554;50.362;7.568;2023-07-08T15:08:16;5.00;;;3.90;;
51475;SDS011;37554;50.362;7.568;2023-07-08T15:10:48;6.20;;;4.43;;
51475;SDS011;37554;50.362;7.568;2023-07-08T15:13:16;4.53;;;3.95;;
51475;SDS011;37554;50.362;7.568;2023-07-08T15:15:44;7.35;;;4.03;;
51475;SDS011;37554;50.362;7.568;2023-07-08T15:18:11;7.95;;;4.55;;
51475;SDS011;37554;50.362;7.568;2023-07-08T15:20:39;6.85;;;4.30;;
51475;SDS011;37554;50.362;7.568;2023-07-08T15:23:05;6.88;;;3.92;;
51475;SDS011;37554;50.362;7.568;2023-07-08T15:25:30;3.90;;;3.30;;
51475;SDS011;37554;50.362;7.568;2023-07-08T15:27:59;6.65;;;3.63;;
51475;SDS011;37554;50.362;7.568;2023-07-08T15:30:26;4.47;;;4.00;;
51475;SDS011;37554;50.362;7.568;2023-07-08T15:32:53;6.05;;;3.75;;
51475;SDS011;37554;50.362;7.568;2023-07-08T15:35:28;5.78;;;3.63;;
51475;SDS011;37554;50.362;7.568;2023-07-08T15:37:56;4.47;;;3.75;;
51475;SDS011;37554;50.362;7.568;2023-07-08T15:40:22;7.05;;;3.85;;
51475;SDS011;37554;50.362;7.568;2023-07-08T15:42:50;4.63;;;4.20;;
51475;SDS011;37554;50.362;7.568;2023-07-08T15:45:20;6.95;;;3.75;;
51475;SDS011;37554;50.362;7.568;2023-07-08T15:47:54;4.60;;;3.72;;
51475;SDS011;37554;50.362;7.568;2023-07-08T15:50:21;4.45;;;3.90;;
51475;SDS011;37554;50.362;7.568;2023-07-08T15:52:49;6.13;;;3.83;;
51475;SDS011;37554;50.362;7.568;2023-07-08T15:55:16;4.60;;;3.65;;